2019-10-16   13:54:56
Välj tävling:

Välj språk:
Swedish English Denmark Finland

Program för Bergen Swim Festival, AdO Arena

Nedan visas startlistor och heatlistor uppdelade per tävlingspass.

Tävlingspass

Document
Entry List
Bergen Swim Festival 2019
Organizer:
Place: AdO Arena Bergensklubbene
Pool: 50m Competition Date: Apr 5, 2019 to Apr 7, 2019
21 200m Medley Men
Sponsor: Rema 1000, Wergeland
WR 1:54.00 Ryan Lochte 1984 United States USA Shanghai CHN 28.07.2011
BSF 1:56.67 Philip Heintz 1991 SV Nikar Heidelberg Ger Bergen 14.04.2018
NOR 1:59.58 Tomoe Zenimoto Hvas 2000 Bærumssvømmerne NOR Buenos Aires BRA 08.10.2018
# ID Name Team Born License Pool Entry
time
Status
1 460 Tomoe Zenimoto Hvas Bærumsvømmerne 2000 25m 1:54.34
2 828 David Thomasberger Deutcher Schwimm-Verband 1996 25m 1:54.99
3 416 Raphael Stacchiotti Team Luxembourg 1992 25m 1:55.53
4 17 Philip Heintz SV Nikar Heidelberg 1991 50m 1:56.67
5 849 Felix Ziemann Schwimm-Club Wiesbaden
1911 e.V.
1998 25m 1:57.10 LAT
6 142 Paul Hentschel SSG Leipzig e.V. 1997 239748 25m 2:00.17
7 852 Simon Sjödin Simklubben Neptun 1986 AG6786 50m 2:00.45 LAT
8 722 Thomas Fraser-Holmes Griffith University 1991 25m 2:00.86
9 153 Louis Dramm Dresdner Delphine 2002 282220 25m 2:01.55
10 814 Wassili Kuhn Deutcher Schwimm-Verband 1999 50m 2:02.00
11 356 Sondre Saltnes Urdal BS/Delfana 1999 25m 2:02.47
12 157 Thomas Rohmberger SV Zwickau von 1904 1997 210024 25m 2:03.06
13 843 Håvard Vindvik Bodø SK 2001 25m 2:03.74 LAT
14 837 Jaouad Syoud Cn Chalon-Sur-Saone 1999 50m 2:04.08
15 23 Alexander Hölbling ATUS Knittelfeld 2001 25m 2:04.64
16 630 Simon Slettevold Stavanger Svømmeklubb 2002 25m 2:05.03
17 553 Ole Marius Rist Jensen Team Sør/KSA 2001 25m 2:05.41
18 490 Christian Groth Dyrkorn Asker SK 2001 25m 2:06.62
19 501 Tobias Bang Mikkelsen Asker SK 2002 25m 2:06.74
20 204 Håkon Syrrist Ullensakersvømmerne 25m 2:08.21
2000
21 685 Adam Fedorcsak Oslo Idrettslag Svømming 25m 2:08.63
2001
22 758 Carl Göransson Väsby Simsällskap 25m 2:10.52
2000 AQ8300
23 294 Daniel Farahani SK Speed 25m 2:10.69
1998
24 211 Håvard Heggland Sortland SLK 25m 2:10.80
2001
25 681 Magnus Reinholdt Belsvik Oslo Idrettslag Svømming 25m 2:11.09
2002
26 197 Vemund Hoset Ullensakersvømmerne 25m 2:11.38
2002
27 617 Jørund Kalvenes Drengstig Stavanger Svømmeklubb 25m 2:11.75
2002
28 853 Jørund Kalvenes Drengstig Sola SK 25m 2:11.75
2002
29 244 Sindre Kampen Nesheim BS-LK 25m 2:11.81
2001
30 82 Magnus Rasmussen Poseidon 25m 2:12.12
2000
31 262 Sigurd Olav Borgstrøm Randaberg IL 25m 2:13.33
2002
32 694 Isac Lieng Oslo Idrettslag Svømming 25m 2:13.38
2002
33 555 Andreas Håbesland Klausen Team Sør/KSA 25m 2:13.68
2002
34 521 Øystein Breivik Bergens Svømme Club 25m 2:13.99
2002
35 84 Anders Valdar Poseidon 25m 2:14.14
2000
36 749 Anton Widholm Väsby Simsällskap 25m 2:14.55
1999 AE6199
37 797 Benjamin Hajdarpasic Lambertseter SK 25m 2:15.11
2002
38 206 Gergo Varga Ullensakersvømmerne 25m 2:16.40
2003
39 93 Torkil Eldegard Heie Ås IL 25m 2:16.46
2000
40 343 Erling Flåm Krogsrud BS/Arna 25m 2:16.47
2000
41 208 Ivar Angell Sortland SLK 25m 2:16.55
2001
42 198 Mathias Somogyi Hoseth Ullensakersvømmerne 25m 2:17.00
2003
43 150 Mathias Martinussen Fauske SK 25m 2:17.16
2004
44 257 Joakim Throndsen BS-LK 25m 2:17.18
2000 M160300
JOA02
45 32 Andreas Getz Bjartland Vestkantsvømmerne 2003 M230403
AND01
25m 2:17.29
46 291 Sofian El Mousaoui SK Speed 2003 25m 2:17.33
47 371 Aleksander Sørebø BS/Åstveit 2003 25m 2:17.47
48 713 Vetle Vikestad Løseth Aalesunds SLK 2004 25m 2:17.71
49 710 Eirik Norvoll Bjørnevik Aalesunds SLK 2001 25m 2:18.67
50 362 Peter Walløe BS/Delfana 2002 25m 2:18.74
51 252 Christopher Johnsen Skar BS-LK 2003 25m 2:19.10
52 597 Trym Vejlgaard Sørensen Glitre SK/BK 2001 25m 2:19.74
53 307 Sigurd Ormseth Årøen SK Speed 2000 25m 2:19.84
54 79 Eirik Vinje Olsen Poseidon 2003 25m 2:20.93
55 290 Jonas She Cheung SK Speed 2005 25m 2:21.08
56 301 Herman Røed SK Speed 2005 25m 2:21.46
57 517 Julius Aleksander Stähr
Aarnes
Asker SK 2004 25m 2:22.04
58 278 Vetle Sørdal Egersund SK 2001 25m 2:22.53
59 126 Jonas Oudalstøl Vågsbygd SLK 2004 25m 2:23.05
60 166 Jonas Fiskaa Barstad Trondhjems SLK 2000 25m 2:23.48
61 332 Gabriel Steen Vestbyen Trondheim 2004 25m 2:23.64
62 349 Marius Fonnes Heggstad BS/Delfana 2001 25m 2:23.77
63 224 Odin Hildebrandt-Paulin Stord symjing 2003 25m 2:24.00
64 652 Kristian Olaisen Haugesund SK 2004 25m 2:24.12
65 586 Daniel Vindfjell Eid SK 2004 25m 2:24.27
66 7 Mats-André Andreassen Grimstad Svømmeklubb 2004 25m 2:24.66
67 136 Edvard Mustaparta Harstad SK 2002 25m 2:24.67
68 212 Anders Inga Sortland SLK 2005 25m 2:24.70
69 280 Aleksey Koriachko Johansen Karasjok SK 2003 25m 2:24.71
70 844 Vegard Vindvik Bodø SK 2003 25m 2:24.71 LAT
71 594 Ivar Mosqueira Forbord Glitre SK/BK 2003 25m 2:25.01
72 14 Simen Løvås Orkanger IF 2003 25m 2:25.47
73 832 Erlend Tregde Farsund SK 2002 25m 2:25.82
74 518 Arn Solheim Andreassen Bergens Svømme Club 2004 25m 2:26.44
75 183 Johan Hjelseth Storstad Trondhjems SLK 2003 25m 2:26.58
76 44 Leander Larsen Nedreaas Vestkantsvømmerne 2002 M230702
LEA02
25m 2:26.75
77 763 Ragnar Simonsson Väsby Simsällskap 2004 AM1904 25m 2:27.22
78 719 Bjørnar Grytnes Laskerud Sunndal SLK 2004 25m 2:28.80
79 66 Eetu Einto Vanders 2001 01A927 50m 2:29.80
80 172 Maxim Gorodkov Trondhjems SLK 2005 25m 2:30.97
81 662 Henrik Hodne Eliassen Delfana 2004 25m 2:31.08
82 95 Herman Riis Langhammer Ås IL 2005 25m 2:31.56
83 270 Amund Helleren Haugstad Mandal SK 2004 25m 2:31.87
84 39 Adrian Larsen Hammer Vestkantsvømmerne 2005 25m 2:32.21
85 769 Erik Falk Stockholmspolisens IF
Simfören
2003 AL0103 25m 2:32.90
86 191 Istvan Besenyi Ullensakersvømmerne 2004 25m 2:34.78
87 610 Anders Scheflo Kvåle Førde IL Symjing 2005 25m 2:35.27
88 268 Sverre Sandanger Myklebust Volda TIL 2003 25m 2:36.06
89 721 Sander Sand Skjetten Svømming 2004 25m 2:36.72
90 40 Joseph Haakon Muki Kititi Vestkantsvømmerne 2003 25m 2:37.47
91 378 Marius Røhne Grønlie Skjetten Svømming 2004 25m 2:38.39
92 486 Fredrik Almnes Asker SK 2005 25m 2:38.57
93 535 Lukas Krohn-Dale Bergens Svømme Club 2005 25m 2:38.94
94 310 Marcus Fjeld Kongstensvømmerne 2004 25m 2:39.05
95 309 Oliver Danielsen Kongstensvømmerne 2005 25m 2:39.27
96 4 Marcus Tvete Namsos Svømmeklubb 2005 25m 2:40.39
97 59 William Bru  Waardal Vestkantsvømmerne 2002 25m 2:40.65
98 35 Nikolai Johan  Dale Vestkantsvømmerne 2005 25m 2:41.49
99 222 Didrik Gudding Stord symjing 2005 25m 2:42.08
100 705 Sverre Junge Klepp SSK 2005 25m 2:42.25
101 181 Vegard Skjervold Trondhjems SLK 2002 25m 2:42.38
102 678 Even Saltnes Urdal Delfana 2006 25m 2:42.40
103 171 Tobias Gilbu Trondhjems SLK 2002 25m 2:43.64
104 256 Simon Tangenes BS-LK 2004 25m 2:43.75
105 5 Mathias Tvete Namsos Svømmeklubb 2005 25m 2:45.16
106 739 Vegard Skar Øgaard Arna SLK 2002 25m 2:45.58
107 100 Leon Østmark-Ellefsen Ås IL 2005 25m 2:46.19
108 267 Andres Kobbevik Volda TIL 2005 25m 2:49.62
109 282 Milos Stojanovic Drammen SK 2004 25m 2:50.72
110 639 Thorvald Hagland Børseth Haugesund SK 2005 25m 2:50.73
111 659 Jørund Alstad Delfana 2004 50m 2:52.42
112 1 Noah Petterson Laugen Namsos Svømmeklubb 2006 25m 2:54.10
113 664 Eiliv August Grøttum Delfana 2005 25m 2:54.99
114 236 Alexander Bajo BS-LK 2005 25m 2:57.96
115 663 Isak Svarstad Ellefsen Delfana 2003 25m 2:59.34
116 782 Sondre Storrø Edvinsen Øyane Svømmeklubb 2005 25m 3:00.34
117 728 Santiago Delgado Arna SLK 2006 25m 3:03.80
118 826 Johan Semmingsen Lerøy Austrheim Svømmeklubb 2004 25m 3:04.71
119 129 Andreas Benjaminsen Harstad SK 2005 25m 3:08.40
120 824 Thomas Hope Austrheim Svømmeklubb 2005 25m 3:17.73
121 825 Endre Lerøy Austrheim Svømmeklubb 2003 25m 3:20.42
122 804 Noah Håkonsund Milazzo Os Svømmeklubb 2006 25m 3:35.01
2019-04-05 07.12.52 Datahandling: WinGrodan 2.3 Licensed to: Bergens Svømme & Livredningsklub

LiveTiming iPhone Banner

LiveTiming iPhone Banner